sensor_id;sensor_type;location;lat;lon;timestamp;temperature;humidity
55016;DHT22;40919;43.236;21.590;2023-07-02T00:02:10;512.30;2380.80
55016;DHT22;40919;43.236;21.590;2023-07-02T00:04:36;512.40;2380.80
55016;DHT22;40919;43.236;21.590;2023-07-02T00:07:03;512.60;2380.80
55016;DHT22;40919;43.236;21.590;2023-07-02T00:09:30;512.70;2380.80
55016;DHT22;40919;43.236;21.590;2023-07-02T00:11:56;512.80;2380.80
55016;DHT22;40919;43.236;21.590;2023-07-02T00:14:21;512.50;2380.80
55016;DHT22;40919;43.236;21.590;2023-07-02T00:16:47;512.60;2380.80
55016;DHT22;40919;43.236;21.590;2023-07-02T00:19:16;512.70;2380.80
55016;DHT22;40919;43.236;21.590;2023-07-02T00:21:42;512.60;2380.80
55016;DHT22;40919;43.236;21.590;2023-07-02T00:24:08;512.50;2380.80
55016;DHT22;40919;43.236;21.590;2023-07-02T00:26:38;512.50;2380.80
55016;DHT22;40919;43.236;21.590;2023-07-02T00:29:05;512.60;2380.80
55016;DHT22;40919;43.236;21.590;2023-07-02T00:31:32;512.70;2380.80
55016;DHT22;40919;43.236;21.590;2023-07-02T00:33:58;512.90;2380.80
55016;DHT22;40919;43.236;21.590;2023-07-02T00:36:26;512.80;2380.80
55016;DHT22;40919;43.236;21.590;2023-07-02T00:38:52;512.20;2380.80
55016;DHT22;40919;43.236;21.590;2023-07-02T00:41:18;512.70;2380.80
55016;DHT22;40919;43.236;21.590;2023-07-02T00:43:44;512.80;2380.80
55016;DHT22;40919;43.236;21.590;2023-07-02T00:46:17;512.90;2380.80
55016;DHT22;40919;43.236;21.590;2023-07-02T00:48:50;512.90;2380.80
55016;DHT22;40919;43.236;21.590;2023-07-02T00:51:19;512.90;2380.80
55016;DHT22;40919;43.236;21.590;2023-07-02T00:53:46;512.90;2380.80
55016;DHT22;40919;43.236;21.590;2023-07-02T00:56:12;512.50;2380.80
55016;DHT22;40919;43.236;21.590;2023-07-02T00:58:44;512.50;2380.80
55016;DHT22;40919;43.236;21.590;2023-07-02T01:01:16;512.50;2380.80
55016;DHT22;40919;43.236;21.590;2023-07-02T01:03:56;512.60;2380.80
55016;DHT22;40919;43.236;21.590;2023-07-02T01:06:24;512.60;2380.80
55016;DHT22;40919;43.236;21.590;2023-07-02T01:08:52;512.40;2380.80
55016;DHT22;40919;43.236;21.590;2023-07-02T01:11:18;512.30;2380.80
55016;DHT22;40919;43.236;21.590;2023-07-02T01:13:45;512.40;2380.80
55016;DHT22;40919;43.236;21.590;2023-07-02T01:16:12;512.30;2380.80
55016;DHT22;40919;43.236;21.590;2023-07-02T01:18:38;512.10;2380.80
55016;DHT22;40919;43.236;21.590;2023-07-02T01:21:05;512.30;2380.80
55016;DHT22;40919;43.236;21.590;2023-07-02T01:23:32;512.60;2329.60
55016;DHT22;40919;43.236;21.590;2023-07-02T01:25:59;512.60;2380.80
55016;DHT22;40919;43.236;21.590;2023-07-02T01:28:33;512.60;2380.80
55016;DHT22;40919;43.236;21.590;2023-07-02T01:30:59;512.70;2380.80
55016;DHT22;40919;43.236;21.590;2023-07-02T01:33:25;512.60;2227.20
55016;DHT22;40919;43.236;21.590;2023-07-02T01:35:51;512.50;2304.00
55016;DHT22;40919;43.236;21.590;2023-07-02T01:38:17;512.20;2252.80
55016;DHT22;40919;43.236;21.590;2023-07-02T01:40:43;512.20;2380.80
55016;DHT22;40919;43.236;21.590;2023-07-02T01:43:09;512.10;2380.80
55016;DHT22;40919;43.236;21.590;2023-07-02T01:45:34;512.20;2380.80
55016;DHT22;40919;43.236;21.590;2023-07-02T01:48:00;512.30;2380.80
55016;DHT22;40919;43.236;21.590;2023-07-02T01:50:26;512.40;2048.00
55016;DHT22;40919;43.236;21.590;2023-07-02T01:52:52;512.60;2380.80
55016;DHT22;40919;43.236;21.590;2023-07-02T01:55:18;512.50;2380.80
55016;DHT22;40919;43.236;21.590;2023-07-02T01:57:43;512.50;2380.80
55016;DHT22;40919;43.236;21.590;2023-07-02T02:00:10;512.30;2329.60
55016;DHT22;40919;43.236;21.590;2023-07-02T02:02:36;512.30;2380.80
55016;DHT22;40919;43.236;21.590;2023-07-02T02:05:01;512.30;2380.80
55016;DHT22;40919;43.236;21.590;2023-07-02T02:07:27;512.30;2380.80
55016;DHT22;40919;43.236;21.590;2023-07-02T02:09:53;512.50;2304.00
55016;DHT22;40919;43.236;21.590;2023-07-02T02:12:19;512.50;2380.80
55016;DHT22;40919;43.236;21.590;2023-07-02T02:14:45;512.60;2380.80
55016;DHT22;40919;43.236;21.590;2023-07-02T02:17:10;512.60;2380.80
55016;DHT22;40919;43.236;21.590;2023-07-02T02:19:36;512.60;2380.80
55016;DHT22;40919;43.236;21.590;2023-07-02T02:22:02;512.60;2380.80
55016;DHT22;40919;43.236;21.590;2023-07-02T02:24:28;512.60;2380.80
55016;DHT22;40919;43.236;21.590;2023-07-02T02:26:54;512.50;2380.80
55016;DHT22;40919;43.236;21.590;2023-07-02T02:29:19;512.40;2380.80
55016;DHT22;40919;43.236;21.590;2023-07-02T02:31:45;512.40;2380.80
55016;DHT22;40919;43.236;21.590;2023-07-02T02:34:11;512.30;2380.80
55016;DHT22;40919;43.236;21.590;2023-07-02T02:36:37;512.40;2380.80
55016;DHT22;40919;43.236;21.590;2023-07-02T02:39:02;512.30;2380.80
55016;DHT22;40919;43.236;21.590;2023-07-02T02:41:28;512.40;2380.80
55016;DHT22;40919;43.236;21.590;2023-07-02T02:43:54;512.40;2380.80
55016;DHT22;40919;43.236;21.590;2023-07-02T02:46:21;512.20;2380.80
55016;DHT22;40919;43.236;21.590;2023-07-02T02:48:50;512.00;2380.80
55016;DHT22;40919;43.236;21.590;2023-07-02T02:51:17;512.00;2380.80
55016;DHT22;40919;43.236;21.590;2023-07-02T02:53:43;512.10;2380.80
55016;DHT22;40919;43.236;21.590;2023-07-02T02:56:08;512.10;2380.80
55016;DHT22;40919;43.236;21.590;2023-07-02T02:58:34;512.00;2380.80
55016;DHT22;40919;43.236;21.590;2023-07-02T03:01:00;512.00;2380.80
55016;DHT22;40919;43.236;21.590;2023-07-02T03:03:26;512.00;2380.80
55016;DHT22;40919;43.236;21.590;2023-07-02T03:05:52;512.10;2380.80
55016;DHT22;40919;43.236;21.590;2023-07-02T03:08:18;512.00;2380.80
55016;DHT22;40919;43.236;21.590;2023-07-02T03:10:43;512.00;2380.80
55016;DHT22;40919;43.236;21.590;2023-07-02T03:13:09;512.00;2380.80
55016;DHT22;40919;43.236;21.590;2023-07-02T03:15:36;512.00;2380.80
55016;DHT22;40919;43.236;21.590;2023-07-02T03:18:02;512.00;2380.80
55016;DHT22;40919;43.236;21.590;2023-07-02T03:20:28;487.30;2380.80
55016;DHT22;40919;43.236;21.590;2023-07-02T03:22:54;487.30;2380.80
55016;DHT22;40919;43.236;21.590;2023-07-02T03:25:20;487.30;2380.80
55016;DHT22;40919;43.236;21.590;2023-07-02T03:27:45;487.30;2380.80
55016;DHT22;40919;43.236;21.590;2023-07-02T03:30:11;487.30;2380.80
55016;DHT22;40919;43.236;21.590;2023-07-02T03:32:37;487.30;2380.80
55016;DHT22;40919;43.236;21.590;2023-07-02T03:35:03;487.10;2380.80
55016;DHT22;40919;43.236;21.590;2023-07-02T03:37:29;487.20;2380.80
55016;DHT22;40919;43.236;21.590;2023-07-02T03:39:55;512.10;2380.80
55016;DHT22;40919;43.236;21.590;2023-07-02T03:42:20;487.30;2380.80
55016;DHT22;40919;43.236;21.590;2023-07-02T03:44:46;487.10;2380.80
55016;DHT22;40919;43.236;21.590;2023-07-02T03:47:12;487.10;2380.80
55016;DHT22;40919;43.236;21.590;2023-07-02T03:49:38;487.30;2380.80
55016;DHT22;40919;43.236;21.590;2023-07-02T03:52:04;487.20;2380.80
55016;DHT22;40919;43.236;21.590;2023-07-02T03:54:30;487.10;2380.80
55016;DHT22;40919;43.236;21.590;2023-07-02T03:56:56;487.20;2380.80
55016;DHT22;40919;43.236;21.590;2023-07-02T03:59:21;487.10;2380.80
55016;DHT22;40919;43.236;21.590;2023-07-02T04:01:47;487.20;2380.80
55016;DHT22;40919;43.236;21.590;2023-07-02T04:04:13;487.20;2380.80
55016;DHT22;40919;43.236;21.590;2023-07-02T04:06:39;487.30;2380.80
55016;DHT22;40919;43.236;21.590;2023-07-02T04:09:04;487.20;2380.80
55016;DHT22;40919;43.236;21.590;2023-07-02T04:11:30;487.20;2380.80
55016;DHT22;40919;43.236;21.590;2023-07-02T04:13:56;487.30;2380.80
55016;DHT22;40919;43.236;21.590;2023-07-02T04:16:22;487.30;2380.80
55016;DHT22;40919;43.236;21.590;2023-07-02T04:18:48;487.30;2380.80
55016;DHT22;40919;43.236;21.590;2023-07-02T04:21:13;487.10;2380.80
55016;DHT22;40919;43.236;21.590;2023-07-02T04:23:39;487.00;2380.80
55016;DHT22;40919;43.236;21.590;2023-07-02T04:26:05;487.00;2380.80
55016;DHT22;40919;43.236;21.590;2023-07-02T04:28:31;487.20;2380.80
55016;DHT22;40919;43.236;21.590;2023-07-02T04:30:57;487.30;2380.80
55016;DHT22;40919;43.236;21.590;2023-07-02T04:33:23;487.30;2380.80
55016;DHT22;40919;43.236;21.590;2023-07-02T04:35:48;487.10;2380.80
55016;DHT22;40919;43.236;21.590;2023-07-02T04:38:14;487.20;2380.80
55016;DHT22;40919;43.236;21.590;2023-07-02T04:40:40;487.30;2380.80
55016;DHT22;40919;43.236;21.590;2023-07-02T04:43:10;487.30;2099.20
55016;DHT22;40919;43.236;21.590;2023-07-02T04:45:36;512.00;2380.80
55016;DHT22;40919;43.236;21.590;2023-07-02T04:48:03;512.10;2380.80
55016;DHT22;40919;43.236;21.590;2023-07-02T04:50:29;512.00;2380.80
55016;DHT22;40919;43.236;21.590;2023-07-02T04:52:55;512.10;2380.80
55016;DHT22;40919;43.236;21.590;2023-07-02T04:55:21;512.00;2380.80
55016;DHT22;40919;43.236;21.590;2023-07-02T04:57:47;487.30;2380.80
55016;DHT22;40919;43.236;21.590;2023-07-02T05:00:13;512.00;2380.80
55016;DHT22;40919;43.236;21.590;2023-07-02T05:02:39;512.00;2380.80
55016;DHT22;40919;43.236;21.590;2023-07-02T05:05:06;512.00;2252.80
55016;DHT22;40919;43.236;21.590;2023-07-02T05:07:33;512.00;2380.80
55016;DHT22;40919;43.236;21.590;2023-07-02T05:09:58;512.00;2380.80
55016;DHT22;40919;43.236;21.590;2023-07-02T05:12:24;512.00;2380.80
55016;DHT22;40919;43.236;21.590;2023-07-02T05:14:50;512.00;2380.80
55016;DHT22;40919;43.236;21.590;2023-07-02T05:17:16;512.20;2380.80
55016;DHT22;40919;43.236;21.590;2023-07-02T05:19:41;512.40;2380.80
55016;DHT22;40919;43.236;21.590;2023-07-02T05:22:09;512.50;2380.80
55016;DHT22;40919;43.236;21.590;2023-07-02T05:24:34;512.50;2380.80
55016;DHT22;40919;43.236;21.590;2023-07-02T05:27:00;512.40;2201.60
55016;DHT22;40919;43.236;21.590;2023-07-02T05:29:26;512.30;2380.80
55016;DHT22;40919;43.236;21.590;2023-07-02T05:31:52;512.40;2380.80
55016;DHT22;40919;43.236;21.590;2023-07-02T05:34:17;512.50;2380.80
55016;DHT22;40919;43.236;21.590;2023-07-02T05:36:44;512.50;2380.80
55016;DHT22;40919;43.236;21.590;2023-07-02T05:39:09;512.50;2380.80
55016;DHT22;40919;43.236;21.590;2023-07-02T05:41:35;512.50;2380.80
55016;DHT22;40919;43.236;21.590;2023-07-02T05:44:01;512.50;2380.80
55016;DHT22;40919;43.236;21.590;2023-07-02T05:46:27;512.60;2380.80
55016;DHT22;40919;43.236;21.590;2023-07-02T05:48:52;512.50;2380.80
55016;DHT22;40919;43.236;21.590;2023-07-02T05:51:22;512.60;2380.80
55016;DHT22;40919;43.236;21.590;2023-07-02T05:53:48;512.60;2380.80
55016;DHT22;40919;43.236;21.590;2023-07-02T05:56:14;512.50;2380.80
55016;DHT22;40919;43.236;21.590;2023-07-02T05:58:39;512.60;2380.80
55016;DHT22;40919;43.236;21.590;2023-07-02T06:01:05;512.60;2380.80
55016;DHT22;40919;43.236;21.590;2023-07-02T06:03:32;512.60;2380.80
55016;DHT22;40919;43.236;21.590;2023-07-02T06:05:58;512.60;2380.80
55016;DHT22;40919;43.236;21.590;2023-07-02T06:08:24;512.70;2380.80
55016;DHT22;40919;43.236;21.590;2023-07-02T06:10:50;512.80;2380.80
55016;DHT22;40919;43.236;21.590;2023-07-02T06:13:16;537.80;2406.40
55016;DHT22;40919;43.236;21.590;2023-07-02T06:15:42;512.90;2380.80
55016;DHT22;40919;43.236;21.590;2023-07-02T06:18:08;537.60;2406.40
55016;DHT22;40919;43.236;21.590;2023-07-02T06:20:34;537.60;2406.40
55016;DHT22;40919;43.236;21.590;2023-07-02T06:23:00;537.80;2406.40
55016;DHT22;40919;43.236;21.590;2023-07-02T06:25:26;537.80;2406.40
55016;DHT22;40919;43.236;21.590;2023-07-02T06:27:51;537.90;2406.40
55016;DHT22;40919;43.236;21.590;2023-07-02T06:30:21;537.80;2406.40
55016;DHT22;40919;43.236;21.590;2023-07-02T06:32:46;512.90;2380.80
55016;DHT22;40919;43.236;21.590;2023-07-02T06:35:12;537.60;2406.40
55016;DHT22;40919;43.236;21.590;2023-07-02T06:37:38;537.70;2406.40
55016;DHT22;40919;43.236;21.590;2023-07-02T06:40:05;537.90;2406.40
55016;DHT22;40919;43.236;21.590;2023-07-02T06:42:31;538.00;2406.40
55016;DHT22;40919;43.236;21.590;2023-07-02T06:44:56;538.20;2406.40
55016;DHT22;40919;43.236;21.590;2023-07-02T06:47:22;538.40;2406.40
55016;DHT22;40919;43.236;21.590;2023-07-02T06:49:48;538.50;2406.40
55016;DHT22;40919;43.236;21.590;2023-07-02T06:52:14;538.50;2406.40
55016;DHT22;40919;43.236;21.590;2023-07-02T06:54:40;538.50;2406.40
55016;DHT22;40919;43.236;21.590;2023-07-02T06:57:05;563.30;2432.00
55016;DHT22;40919;43.236;21.590;2023-07-02T06:59:31;563.40;2432.00
55016;DHT22;40919;43.236;21.590;2023-07-02T07:01:57;563.40;2432.00
55016;DHT22;40919;43.236;21.590;2023-07-02T07:04:23;563.50;2432.00
55016;DHT22;40919;43.236;21.590;2023-07-02T07:06:48;563.40;2432.00
55016;DHT22;40919;43.236;21.590;2023-07-02T07:09:14;563.30;2432.00
55016;DHT22;40919;43.236;21.590;2023-07-02T07:11:40;563.30;2432.00
55016;DHT22;40919;43.236;21.590;2023-07-02T07:14:06;563.30;2432.00
55016;DHT22;40919;43.236;21.590;2023-07-02T07:16:31;563.30;2432.00
55016;DHT22;40919;43.236;21.590;2023-07-02T07:18:57;563.60;2432.00
55016;DHT22;40919;43.236;21.590;2023-07-02T07:21:23;563.60;2432.00
55016;DHT22;40919;43.236;21.590;2023-07-02T07:23:49;563.70;2432.00
55016;DHT22;40919;43.236;21.590;2023-07-02T07:26:15;564.00;2432.00
55016;DHT22;40919;43.236;21.590;2023-07-02T07:28:40;564.10;2432.00
55016;DHT22;40919;43.236;21.590;2023-07-02T07:31:06;588.90;2432.00
55016;DHT22;40919;43.236;21.590;2023-07-02T07:33:32;589.10;2432.00
55016;DHT22;40919;43.236;21.590;2023-07-02T07:35:58;589.30;2432.00
55016;DHT22;40919;43.236;21.590;2023-07-02T07:38:25;589.30;2432.00
55016;DHT22;40919;43.236;21.590;2023-07-02T07:40:51;589.30;2432.00
55016;DHT22;40919;43.236;21.590;2023-07-02T07:43:17;589.20;2432.00
55016;DHT22;40919;43.236;21.590;2023-07-02T07:45:43;589.20;2432.00
55016;DHT22;40919;43.236;21.590;2023-07-02T07:48:09;589.30;2432.00
55016;DHT22;40919;43.236;21.590;2023-07-02T07:50:35;589.30;2432.00
55016;DHT22;40919;43.236;21.590;2023-07-02T07:53:00;589.50;2432.00
55016;DHT22;40919;43.236;21.590;2023-07-02T07:55:26;589.70;2432.00
55016;DHT22;40919;43.236;21.590;2023-07-02T07:57:52;589.70;2432.00
55016;DHT22;40919;43.236;21.590;2023-07-02T08:00:18;614.40;2432.00
55016;DHT22;40919;43.236;21.590;2023-07-02T08:02:46;614.40;2432.00
55016;DHT22;40919;43.236;21.590;2023-07-02T08:05:14;614.40;2432.00
55016;DHT22;40919;43.236;21.590;2023-07-02T08:07:40;614.40;2432.00
55016;DHT22;40919;43.236;21.590;2023-07-02T08:10:06;614.60;2432.00
55016;DHT22;40919;43.236;21.590;2023-07-02T08:12:34;614.60;2432.00
55016;DHT22;40919;43.236;21.590;2023-07-02T08:15:00;614.60;2432.00
55016;DHT22;40919;43.236;21.590;2023-07-02T08:17:26;614.50;2432.00
55016;DHT22;40919;43.236;21.590;2023-07-02T08:19:51;614.50;2432.00
55016;DHT22;40919;43.236;21.590;2023-07-02T08:22:17;614.50;2432.00
55016;DHT22;40919;43.236;21.590;2023-07-02T08:24:43;614.50;2432.00
55016;DHT22;40919;43.236;21.590;2023-07-02T08:27:09;614.60;2432.00
55016;DHT22;40919;43.236;21.590;2023-07-02T08:29:36;614.60;2432.00
55016;DHT22;40919;43.236;21.590;2023-07-02T08:32:02;614.70;2432.00
55016;DHT22;40919;43.236;21.590;2023-07-02T08:34:28;614.80;2432.00
55016;DHT22;40919;43.236;21.590;2023-07-02T08:36:53;614.90;2432.00
55016;DHT22;40919;43.236;21.590;2023-07-02T08:39:19;614.90;2432.00
55016;DHT22;40919;43.236;21.590;2023-07-02T08:41:46;614.90;2432.00
55016;DHT22;40919;43.236;21.590;2023-07-02T08:44:13;614.90;2432.00
55016;DHT22;40919;43.236;21.590;2023-07-02T08:46:42;615.10;2432.00
55016;DHT22;40919;43.236;21.590;2023-07-02T08:49:08;615.10;2432.00
55016;DHT22;40919;43.236;21.590;2023-07-02T08:51:34;615.10;2432.00
55016;DHT22;40919;43.236;21.590;2023-07-02T08:54:01;615.10;2432.00
55016;DHT22;40919;43.236;21.590;2023-07-02T08:56:27;615.30;2432.00
55016;DHT22;40919;43.236;21.590;2023-07-02T08:58:53;640.10;2432.00
55016;DHT22;40919;43.236;21.590;2023-07-02T09:01:19;640.40;2432.00
55016;DHT22;40919;43.236;21.590;2023-07-02T09:03:45;640.60;2432.00
55016;DHT22;40919;43.236;21.590;2023-07-02T09:06:11;640.70;2432.00
55016;DHT22;40919;43.236;21.590;2023-07-02T09:08:38;640.90;2432.00
55016;DHT22;40919;43.236;21.590;2023-07-02T09:11:15;665.90;2432.00
55016;DHT22;40919;43.236;21.590;2023-07-02T09:13:50;666.00;2432.00
55016;DHT22;40919;43.236;21.590;2023-07-02T09:16:24;666.00;2432.00
55016;DHT22;40919;43.236;21.590;2023-07-02T09:21:44;665.90;2432.00
55016;DHT22;40919;43.236;21.590;2023-07-02T09:24:21;665.90;2432.00
55016;DHT22;40919;43.236;21.590;2023-07-02T09:26:53;665.90;2432.00
55016;DHT22;40919;43.236;21.590;2023-07-02T09:31:49;666.40;2432.00
55016;DHT22;40919;43.236;21.590;2023-07-02T09:34:15;691.30;2432.00
55016;DHT22;40919;43.236;21.590;2023-07-02T09:36:42;691.60;2432.00
55016;DHT22;40919;43.236;21.590;2023-07-02T09:39:13;691.30;2432.00
55016;DHT22;40919;43.236;21.590;2023-07-02T09:41:41;666.40;2432.00
55016;DHT22;40919;43.236;21.590;2023-07-02T09:44:08;666.20;2432.00
55016;DHT22;40919;43.236;21.590;2023-07-02T09:46:37;666.00;2432.00
55016;DHT22;40919;43.236;21.590;2023-07-02T09:49:06;665.90;2432.00
55016;DHT22;40919;43.236;21.590;2023-07-02T09:51:33;666.20;2432.00
55016;DHT22;40919;43.236;21.590;2023-07-02T09:53:59;666.50;2432.00
55016;DHT22;40919;43.236;21.590;2023-07-02T09:56:25;691.30;2432.00
55016;DHT22;40919;43.236;21.590;2023-07-02T09:58:51;691.60;2432.00
55016;DHT22;40919;43.236;21.590;2023-07-02T10:01:17;691.90;2432.00
55016;DHT22;40919;43.236;21.590;2023-07-02T10:03:43;716.80;2432.00
55016;DHT22;40919;43.236;21.590;2023-07-02T10:06:09;717.10;2432.00
55016;DHT22;40919;43.236;21.590;2023-07-02T10:08:35;717.20;2432.00
55016;DHT22;40919;43.236;21.590;2023-07-02T10:11:33;717.10;2432.00
55016;DHT22;40919;43.236;21.590;2023-07-02T10:14:02;717.00;2432.00
55016;DHT22;40919;43.236;21.590;2023-07-02T10:16:27;692.10;2432.00
55016;DHT22;40919;43.236;21.590;2023-07-02T10:18:54;691.90;2432.00
55016;DHT22;40919;43.236;21.590;2023-07-02T10:21:20;691.90;2432.00
55016;DHT22;40919;43.236;21.590;2023-07-02T10:23:46;716.80;2432.00
55016;DHT22;40919;43.236;21.590;2023-07-02T10:26:18;716.80;2432.00
55016;DHT22;40919;43.236;21.590;2023-07-02T10:29:05;717.20;2432.00
55016;DHT22;40919;43.236;21.590;2023-07-02T10:31:31;717.60;2432.00
55016;DHT22;40919;43.236;21.590;2023-07-02T10:33:57;717.70;2432.00
55016;DHT22;40919;43.236;21.590;2023-07-02T10:36:24;717.50;2432.00
55016;DHT22;40919;43.236;21.590;2023-07-02T10:38:51;717.20;2432.00
55016;DHT22;40919;43.236;21.590;2023-07-02T10:41:29;716.90;2432.00
55016;DHT22;40919;43.236;21.590;2023-07-02T10:44:09;692.10;2432.00
55016;DHT22;40919;43.236;21.590;2023-07-02T10:46:43;691.80;2432.00
55016;DHT22;40919;43.236;21.590;2023-07-02T10:49:09;691.60;2432.00
55016;DHT22;40919;43.236;21.590;2023-07-02T10:51:38;691.30;2432.00
55016;DHT22;40919;43.236;21.590;2023-07-02T10:54:04;691.30;2432.00
55016;DHT22;40919;43.236;21.590;2023-07-02T10:56:31;691.30;2432.00
55016;DHT22;40919;43.236;21.590;2023-07-02T10:58:57;691.30;2432.00
55016;DHT22;40919;43.236;21.590;2023-07-02T11:01:28;691.30;2432.00
55016;DHT22;40919;43.236;21.590;2023-07-02T11:03:58;691.30;2432.00
55016;DHT22;40919;43.236;21.590;2023-07-02T11:06:25;691.20;2432.00
55016;DHT22;40919;43.236;21.590;2023-07-02T11:08:52;691.30;2432.00
55016;DHT22;40919;43.236;21.590;2023-07-02T11:11:18;691.30;2432.00
55016;DHT22;40919;43.236;21.590;2023-07-02T11:13:45;691.30;2432.00
55016;DHT22;40919;43.236;21.590;2023-07-02T11:16:33;691.40;2432.00
55016;DHT22;40919;43.236;21.590;2023-07-02T11:19:08;691.30;2432.00
55016;DHT22;40919;43.236;21.590;2023-07-02T11:21:34;666.50;2432.00
55016;DHT22;40919;43.236;21.590;2023-07-02T11:24:05;691.60;2432.00
55016;DHT22;40919;43.236;21.590;2023-07-02T11:26:41;691.80;2432.00
55016;DHT22;40919;43.236;21.590;2023-07-02T11:29:18;692.10;2432.00
55016;DHT22;40919;43.236;21.590;2023-07-02T11:31:44;717.00;2432.00
55016;DHT22;40919;43.236;21.590;2023-07-02T11:34:18;716.90;2432.00
55016;DHT22;40919;43.236;21.590;2023-07-02T11:36:44;717.10;2432.00
55016;DHT22;40919;43.236;21.590;2023-07-02T11:39:11;717.30;2432.00
55016;DHT22;40919;43.236;21.590;2023-07-02T11:41:42;717.40;2432.00
55016;DHT22;40919;43.236;21.590;2023-07-02T11:44:09;717.60;2432.00
55016;DHT22;40919;43.236;21.590;2023-07-02T11:46:35;717.70;2432.00
55016;DHT22;40919;43.236;21.590;2023-07-02T11:49:01;717.50;2432.00
55016;DHT22;40919;43.236;21.590;2023-07-02T11:51:28;742.40;2432.00
55016;DHT22;40919;43.236;21.590;2023-07-02T11:53:53;742.40;2432.00
55016;DHT22;40919;43.236;21.590;2023-07-02T11:56:19;742.50;2406.40
55016;DHT22;40919;43.236;21.590;2023-07-02T11:58:45;742.50;2432.00
55016;DHT22;40919;43.236;21.590;2023-07-02T12:01:11;742.50;2432.00
55016;DHT22;40919;43.236;21.590;2023-07-02T12:03:36;742.50;2432.00
55016;DHT22;40919;43.236;21.590;2023-07-02T12:06:02;742.80;2432.00
55016;DHT22;40919;43.236;21.590;2023-07-02T12:08:28;742.90;2432.00
55016;DHT22;40919;43.236;21.590;2023-07-02T12:10:54;743.10;2406.40
55016;DHT22;40919;43.236;21.590;2023-07-02T12:13:20;743.00;2380.80
55016;DHT22;40919;43.236;21.590;2023-07-02T12:15:49;743.10;2406.40
55016;DHT22;40919;43.236;21.590;2023-07-02T12:18:16;742.90;2406.40
55016;DHT22;40919;43.236;21.590;2023-07-02T12:20:42;743.00;2380.80
55016;DHT22;40919;43.236;21.590;2023-07-02T12:23:09;768.00;2380.80
55016;DHT22;40919;43.236;21.590;2023-07-02T12:25:36;768.30;2380.80
55016;DHT22;40919;43.236;21.590;2023-07-02T12:28:05;743.20;2432.00
55016;DHT22;40919;43.236;21.590;2023-07-02T12:30:31;743.10;2432.00
55016;DHT22;40919;43.236;21.590;2023-07-02T12:32:57;743.30;2432.00
55016;DHT22;40919;43.236;21.590;2023-07-02T12:35:23;743.30;2432.00
55016;DHT22;40919;43.236;21.590;2023-07-02T12:37:51;743.00;2432.00
55016;DHT22;40919;43.236;21.590;2023-07-02T12:40:17;743.20;2432.00
55016;DHT22;40919;43.236;21.590;2023-07-02T12:42:44;743.00;2432.00
55016;DHT22;40919;43.236;21.590;2023-07-02T12:45:12;743.30;2432.00
55016;DHT22;40919;43.236;21.590;2023-07-02T12:47:38;743.00;2432.00
55016;DHT22;40919;43.236;21.590;2023-07-02T12:50:06;743.10;2432.00
55016;DHT22;40919;43.236;21.590;2023-07-02T12:52:32;742.90;2432.00
55016;DHT22;40919;43.236;21.590;2023-07-02T12:54:58;742.80;2432.00
55016;DHT22;40919;43.236;21.590;2023-07-02T12:57:24;743.00;2380.80
55016;DHT22;40919;43.236;21.590;2023-07-02T12:59:53;743.30;2227.20
55016;DHT22;40919;43.236;21.590;2023-07-02T13:02:18;768.10;2150.40
55016;DHT22;40919;43.236;21.590;2023-07-02T13:04:44;768.40;2176.00
55016;DHT22;40919;43.236;21.590;2023-07-02T13:07:10;768.70;2099.20
55016;DHT22;40919;43.236;21.590;2023-07-02T13:09:36;768.90;2073.60
55016;DHT22;40919;43.236;21.590;2023-07-02T13:12:02;793.80;2150.40
55016;DHT22;40919;43.236;21.590;2023-07-02T13:14:28;794.20;2124.80
55016;DHT22;40919;43.236;21.590;2023-07-02T13:16:54;794.50;2073.60
55016;DHT22;40919;43.236;21.590;2023-07-02T13:19:20;819.20;2124.80
55016;DHT22;40919;43.236;21.590;2023-07-02T13:21:46;819.50;2150.40
55016;DHT22;40919;43.236;21.590;2023-07-02T13:24:11;819.50;2048.00
55016;DHT22;40919;43.236;21.590;2023-07-02T13:26:40;819.40;2099.20
55016;DHT22;40919;43.236;21.590;2023-07-02T13:29:05;819.50;2048.00
55016;DHT22;40919;43.236;21.590;2023-07-02T13:31:31;819.60;2124.80
55016;DHT22;40919;43.236;21.590;2023-07-02T13:33:57;819.50;2176.00
55016;DHT22;40919;43.236;21.590;2023-07-02T13:36:23;819.50;2227.20
55016;DHT22;40919;43.236;21.590;2023-07-02T13:38:49;819.60;2227.20
55016;DHT22;40919;43.236;21.590;2023-07-02T13:41:15;819.80;2201.60
55016;DHT22;40919;43.236;21.590;2023-07-02T13:43:41;819.90;2201.60
55016;DHT22;40919;43.236;21.590;2023-07-02T13:46:07;819.30;2227.20
55016;DHT22;40919;43.236;21.590;2023-07-02T13:48:32;794.20;2278.40
55016;DHT22;40919;43.236;21.590;2023-07-02T13:51:00;793.60;2278.40
55016;DHT22;40919;43.236;21.590;2023-07-02T13:53:26;768.50;2304.00
55016;DHT22;40919;43.236;21.590;2023-07-02T13:55:51;743.30;2304.00
55016;DHT22;40919;43.236;21.590;2023-07-02T13:58:17;742.90;2329.60
55016;DHT22;40919;43.236;21.590;2023-07-02T14:00:43;742.70;2355.20
55016;DHT22;40919;43.236;21.590;2023-07-02T14:03:09;742.40;2380.80
55016;DHT22;40919;43.236;21.590;2023-07-02T14:05:35;717.50;2355.20
55016;DHT22;40919;43.236;21.590;2023-07-02T14:08:00;717.40;2432.00
55016;DHT22;40919;43.236;21.590;2023-07-02T14:10:26;717.30;2432.00
55016;DHT22;40919;43.236;21.590;2023-07-02T14:12:54;717.20;2432.00
55016;DHT22;40919;43.236;21.590;2023-07-02T14:15:20;717.20;2432.00
55016;DHT22;40919;43.236;21.590;2023-07-02T14:17:46;717.10;2432.00
55016;DHT22;40919;43.236;21.590;2023-07-02T14:20:12;717.10;2432.00
55016;DHT22;40919;43.236;21.590;2023-07-02T14:22:38;717.10;2432.00
55016;DHT22;40919;43.236;21.590;2023-07-02T14:25:04;717.10;2432.00
55016;DHT22;40919;43.236;21.590;2023-07-02T14:27:30;717.10;2432.00
55016;DHT22;40919;43.236;21.590;2023-07-02T14:29:56;717.20;2432.00
55016;DHT22;40919;43.236;21.590;2023-07-02T14:32:22;717.20;2432.00
55016;DHT22;40919;43.236;21.590;2023-07-02T14:34:48;717.10;2432.00
55016;DHT22;40919;43.236;21.590;2023-07-02T14:37:14;717.00;2432.00
55016;DHT22;40919;43.236;21.590;2023-07-02T14:39:40;716.90;2432.00